createdAt,value
2022-11-20T00:01:24.780Z,0.92
2022-11-20T00:03:56.208Z,0.89
2022-11-20T00:06:23.520Z,0.88
2022-11-20T00:08:50.319Z,0.86
2022-11-20T00:11:19.355Z,0.87
2022-11-20T00:13:47.164Z,0.89
2022-11-20T00:16:15.976Z,0.89
2022-11-20T00:18:43.241Z,0.88
2022-11-20T00:21:17.809Z,0.90
2022-11-20T00:23:44.730Z,0.89
2022-11-20T00:26:13.815Z,0.90
2022-11-20T00:28:40.793Z,0.91
2022-11-20T00:31:09.618Z,0.90
2022-11-20T00:33:36.064Z,0.89
2022-11-20T00:36:04.657Z,0.88
2022-11-20T00:38:34.509Z,0.91
2022-11-20T00:41:03.213Z,0.92
2022-11-20T00:43:29.950Z,0.95
2022-11-20T00:46:04.261Z,0.92
2022-11-20T00:48:31.250Z,0.90
2022-11-20T00:50:58.505Z,0.90
2022-11-20T00:53:25.582Z,0.92
2022-11-20T00:56:00.662Z,0.88
2022-11-20T00:58:31.499Z,0.83
2022-11-20T01:01:03.054Z,0.78
2022-11-20T01:03:33.145Z,0.73
2022-11-20T01:06:10.316Z,0.70
2022-11-20T01:08:37.366Z,0.66
2022-11-20T01:11:07.482Z,0.63
2022-11-20T01:13:40.063Z,0.61
2022-11-20T01:16:15.458Z,0.62
2022-11-20T01:18:46.797Z,0.60
2022-11-20T01:21:16.175Z,0.58
2022-11-20T01:23:43.748Z,0.56
2022-11-20T01:26:12.727Z,0.53
2022-11-20T01:28:41.617Z,0.51
2022-11-20T01:31:35.243Z,0.52
2022-11-20T01:34:06.559Z,0.55
2022-11-20T01:36:35.099Z,0.54
2022-11-20T01:39:04.854Z,0.52
2022-11-20T01:41:51.406Z,0.51
2022-11-20T01:44:23.204Z,0.49
2022-11-20T01:47:02.116Z,0.43
2022-11-20T01:49:39.639Z,0.39
2022-11-20T01:52:13.266Z,0.36
2022-11-20T01:54:47.284Z,0.33
2022-11-20T01:57:16.310Z,0.33
2022-11-20T01:59:58.308Z,0.31
2022-11-20T02:02:25.024Z,0.29
2022-11-20T02:04:55.018Z,0.28
2022-11-20T02:07:22.088Z,0.30
2022-11-20T02:09:48.624Z,0.32
2022-11-20T02:12:35.533Z,0.31
2022-11-20T02:15:02.125Z,0.30
2022-11-20T02:17:28.832Z,0.28
2022-11-20T02:19:55.280Z,0.26
2022-11-20T02:22:31.798Z,0.25
2022-11-20T02:25:03.014Z,0.23
2022-11-20T02:27:29.761Z,0.21
2022-11-20T02:30:05.495Z,0.21
2022-11-20T02:32:35.283Z,0.23
2022-11-20T02:35:27.739Z,0.22
2022-11-20T02:37:56.899Z,0.20
2022-11-20T02:40:24.010Z,0.19
2022-11-20T02:42:54.227Z,0.18
2022-11-20T02:45:20.714Z,0.15
2022-11-20T02:47:47.172Z,0.12
2022-11-20T02:50:13.634Z,0.08
2022-11-20T02:52:40.023Z,0.09
2022-11-20T02:55:07.050Z,0.10
2022-11-20T02:57:33.435Z,0.11
2022-11-20T02:59:59.788Z,0.11
2022-11-20T03:02:26.180Z,0.08
2022-11-20T03:04:52.618Z,0.04
2022-11-20T03:07:19.075Z,0.02
2022-11-20T03:09:45.540Z,0.04
2022-11-20T03:12:11.925Z,0.02
2022-11-20T03:14:38.340Z,-0.01
2022-11-20T03:17:04.713Z,-0.04
2022-11-20T03:19:31.245Z,-0.04
2022-11-20T03:21:57.728Z,-0.06
2022-11-20T03:24:24.106Z,-0.10
2022-11-20T03:26:50.484Z,-0.10
2022-11-20T03:29:16.824Z,-0.09
2022-11-20T03:31:43.272Z,-0.10
2022-11-20T03:34:11.700Z,-0.11
2022-11-20T03:36:39.833Z,-0.08
2022-11-20T03:39:06.286Z,-0.07
2022-11-20T03:41:38.056Z,-0.05
2022-11-20T03:44:06.961Z,-0.05
2022-11-20T03:46:33.602Z,-0.07
2022-11-20T03:49:00.203Z,-0.07
2022-11-20T03:51:28.889Z,-0.03
2022-11-20T03:53:57.531Z,-0.04
2022-11-20T03:56:27.138Z,-0.03
2022-11-20T03:58:53.827Z,-0.02
2022-11-20T04:01:31.687Z,-0.02
2022-11-20T04:03:58.569Z,-0.04
2022-11-20T04:06:27.867Z,-0.07
2022-11-20T04:08:59.025Z,-0.10
2022-11-20T04:11:27.743Z,-0.13
2022-11-20T04:14:02.533Z,-0.13
2022-11-20T04:16:34.417Z,-0.16
2022-11-20T04:19:04.299Z,-0.19
2022-11-20T04:21:30.990Z,-0.20
2022-11-20T04:23:57.773Z,-0.21
2022-11-20T04:26:26.716Z,-0.20
2022-11-20T04:28:53.447Z,-0.19
2022-11-20T04:31:22.609Z,-0.20
2022-11-20T04:33:49.116Z,-0.23
2022-11-20T04:36:18.526Z,-0.25
2022-11-20T04:38:45.713Z,-0.28
2022-11-20T04:41:19.984Z,-0.26
2022-11-20T04:43:59.884Z,-0.28
2022-11-20T04:46:27.903Z,-0.29
2022-11-20T04:48:54.696Z,-0.30
2022-11-20T04:51:21.083Z,-0.30
2022-11-20T04:53:47.546Z,-0.28
2022-11-20T04:56:14.759Z,-0.25
2022-11-20T04:58:42.051Z,-0.20
2022-11-20T05:01:14.608Z,-0.18
2022-11-20T05:03:42.879Z,-0.19
2022-11-20T05:06:11.481Z,-0.21
2022-11-20T05:08:37.840Z,-0.21
2022-11-20T05:11:10.478Z,-0.21
2022-11-20T05:13:37.147Z,-0.25
2022-11-20T05:16:13.523Z,-0.26
2022-11-20T05:18:41.411Z,-0.30
2022-11-20T05:21:09.173Z,-0.31
2022-11-20T05:23:36.553Z,-0.32
2022-11-20T05:26:03.252Z,-0.35
2022-11-20T05:28:31.245Z,-0.37
2022-11-20T05:31:08.091Z,-0.41
2022-11-20T05:33:35.903Z,-0.42
2022-11-20T05:36:04.759Z,-0.40
2022-11-20T05:38:31.674Z,-0.41
2022-11-20T05:41:14.962Z,-0.42
2022-11-20T05:43:43.400Z,-0.40
2022-11-20T05:46:11.953Z,-0.38
2022-11-20T05:48:40.268Z,-0.39
2022-11-20T05:51:08.816Z,-0.40
2022-11-20T05:53:36.447Z,-0.41
2022-11-20T05:56:05.886Z,-0.40
2022-11-20T05:58:33.584Z,-0.39
2022-11-20T06:01:26.691Z,-0.40
2022-11-20T06:03:54.065Z,-0.39
2022-11-20T06:06:21.237Z,-0.39
2022-11-20T06:08:47.967Z,-0.38
2022-11-20T06:11:15.545Z,-0.40
2022-11-20T06:13:42.954Z,-0.44
2022-11-20T06:16:10.673Z,-0.44
2022-11-20T06:18:37.371Z,-0.45
2022-11-20T06:21:12.643Z,-0.45
2022-11-20T06:23:39.127Z,-0.46
2022-11-20T06:26:08.203Z,-0.47
2022-11-20T06:28:34.772Z,-0.48
2022-11-20T06:31:01.427Z,-0.47
2022-11-20T06:33:28.468Z,-0.48
2022-11-20T06:36:00.950Z,-0.48
2022-11-20T06:38:29.594Z,-0.45
2022-11-20T06:40:56.412Z,-0.44
2022-11-20T06:43:23.787Z,-0.42
2022-11-20T06:45:57.552Z,-0.42
2022-11-20T06:48:24.951Z,-0.41
2022-11-20T06:50:51.354Z,-0.43
2022-11-20T06:53:17.728Z,-0.42
2022-11-20T06:55:45.838Z,-0.41
2022-11-20T06:58:13.247Z,-0.40
2022-11-20T07:00:39.946Z,-0.39
2022-11-20T07:03:07.803Z,-0.42
2022-11-20T07:05:34.580Z,-0.40
2022-11-20T07:08:01.115Z,-0.39
2022-11-20T07:10:27.932Z,-0.38
2022-11-20T07:12:54.648Z,-0.36
2022-11-20T07:15:23.028Z,-0.36
2022-11-20T07:17:49.524Z,-0.37
2022-11-20T07:20:16.228Z,-0.34
2022-11-20T07:22:43.060Z,-0.36
2022-11-20T07:25:10.655Z,-0.35
2022-11-20T07:27:37.403Z,-0.32
2022-11-20T07:30:05.105Z,-0.30
2022-11-20T07:32:31.935Z,-0.27
2022-11-20T07:34:58.437Z,-0.25
2022-11-20T07:37:24.822Z,-0.21
2022-11-20T07:39:51.185Z,-0.16
2022-11-20T07:42:17.619Z,-0.15
2022-11-20T07:44:44.018Z,-0.14
2022-11-20T07:47:10.391Z,-0.13
2022-11-20T07:49:36.845Z,-0.09
2022-11-20T07:52:05.025Z,-0.05
2022-11-20T07:54:31.801Z,-0.01
2022-11-20T07:56:58.168Z,0.01
2022-11-20T07:59:24.589Z,0.09
2022-11-20T08:01:50.958Z,0.16
2022-11-20T08:04:17.432Z,0.17
2022-11-20T08:06:43.919Z,0.17
2022-11-20T08:09:10.609Z,0.11
2022-11-20T08:11:55.675Z,0.10
2022-11-20T08:14:22.044Z,0.12
2022-11-20T08:16:50.033Z,0.15
2022-11-20T08:19:18.588Z,0.15
2022-11-20T08:21:45.728Z,0.20
2022-11-20T08:24:12.740Z,0.25
2022-11-20T08:26:40.282Z,0.28
2022-11-20T08:29:06.932Z,0.27
2022-11-20T08:31:33.572Z,0.23
2022-11-20T08:34:00.027Z,0.24
2022-11-20T08:36:26.773Z,0.23
2022-11-20T08:38:55.684Z,0.21
2022-11-20T08:41:26.446Z,0.20
2022-11-20T08:43:58.274Z,0.17
2022-11-20T08:46:26.848Z,0.11
2022-11-20T08:48:53.730Z,0.13
2022-11-20T08:51:21.096Z,0.13
2022-11-20T08:53:49.426Z,0.13
2022-11-20T08:56:16.042Z,0.15
2022-11-20T08:59:16.014Z,0.18
2022-11-20T09:01:30.062Z,0.22
2022-11-20T09:03:58.055Z,0.22
2022-11-20T09:06:24.503Z,0.27
2022-11-20T09:08:54.500Z,0.26
2022-11-20T09:11:21.398Z,0.28
2022-11-20T09:13:47.900Z,0.27
2022-11-20T09:16:14.410Z,0.30
2022-11-20T09:18:40.828Z,0.34
2022-11-20T09:21:11.745Z,0.39
2022-11-20T09:23:39.340Z,0.41
2022-11-20T09:26:07.932Z,0.42
2022-11-20T09:28:34.463Z,0.47
2022-11-20T09:31:01.091Z,0.53
2022-11-20T09:33:27.668Z,0.60
2022-11-20T09:35:54.135Z,0.68
2022-11-20T09:38:20.547Z,0.73
2022-11-20T09:41:07.913Z,0.77
2022-11-20T09:43:43.667Z,0.85
2022-11-20T09:46:16.048Z,0.81
2022-11-20T09:48:57.689Z,0.85
2022-11-20T09:51:53.379Z,0.86
2022-11-20T09:54:21.346Z,0.88
2022-11-20T09:56:57.255Z,0.95
2022-11-20T09:59:45.539Z,0.99
2022-11-20T10:02:31.541Z,0.92
2022-11-20T10:05:07.898Z,0.95
2022-11-20T10:07:45.332Z,0.93
2022-11-20T10:10:28.696Z,0.99
2022-11-20T10:13:38.509Z,0.93
2022-11-20T10:16:42.334Z,0.94
2022-11-20T10:19:36.465Z,1.03
2022-11-20T10:22:23.554Z,1.11
2022-11-20T10:24:55.908Z,1.08
2022-11-20T10:28:11.170Z,1.05
2022-11-20T10:30:44.168Z,1.13
2022-11-20T10:33:24.093Z,1.21
2022-11-20T10:35:59.881Z,1.26
2022-11-20T10:38:31.310Z,1.30
2022-11-20T10:41:22.554Z,1.29
2022-11-20T10:43:54.874Z,1.21
2022-11-20T10:46:23.680Z,1.23
2022-11-20T10:48:50.960Z,1.23
2022-11-20T10:51:40.930Z,1.32
2022-11-20T10:54:35.154Z,1.36
2022-11-20T10:57:14.530Z,1.42
2022-11-20T10:59:46.950Z,1.46
2022-11-20T11:02:24.686Z,1.55
2022-11-20T11:04:55.442Z,1.51
2022-11-20T11:07:31.413Z,1.58
2022-11-20T11:09:58.252Z,1.57
2022-11-20T11:12:28.037Z,1.56
2022-11-20T11:14:56.469Z,1.53
2022-11-20T11:17:35.431Z,1.54
2022-11-20T11:20:17.991Z,1.58
2022-11-20T11:22:50.649Z,1.57
2022-11-20T11:25:37.151Z,1.61
2022-11-20T11:28:20.573Z,1.68
2022-11-20T11:30:50.080Z,1.70
2022-11-20T11:33:22.829Z,1.65
2022-11-20T11:36:00.785Z,1.61
2022-11-20T11:38:38.840Z,1.58
2022-11-20T11:41:07.272Z,1.62
2022-11-20T11:43:54.896Z,1.61
2022-11-20T11:46:21.203Z,1.58
2022-11-20T11:49:10.690Z,1.55
2022-11-20T11:51:51.376Z,1.60
2022-11-20T11:54:27.584Z,1.60
2022-11-20T11:56:54.595Z,1.56
2022-11-20T11:59:50.907Z,1.54
2022-11-20T12:02:41.132Z,1.57
2022-11-20T12:05:44.985Z,1.57
2022-11-20T12:08:30.823Z,1.61
2022-11-20T12:11:11.574Z,1.50
2022-11-20T12:13:46.251Z,1.52
2022-11-20T12:16:15.509Z,1.50
2022-11-20T12:18:43.155Z,1.51
2022-11-20T12:21:24.467Z,1.53
2022-11-20T12:24:07.952Z,1.57
2022-11-20T12:27:01.521Z,1.61
2022-11-20T12:29:36.923Z,1.61
2022-11-20T12:32:19.717Z,1.63
2022-11-20T12:35:10.149Z,1.62
2022-11-20T12:37:53.474Z,1.59
2022-11-20T12:40:42.597Z,1.62
2022-11-20T12:43:45.632Z,1.67
2022-11-20T12:46:33.588Z,1.73
2022-11-20T12:49:14.518Z,1.70
2022-11-20T12:51:59.470Z,1.73
2022-11-20T12:54:55.199Z,1.69
2022-11-20T12:57:43.087Z,1.67
2022-11-20T13:00:10.696Z,1.68
2022-11-20T13:03:14.116Z,1.70
2022-11-20T13:05:55.656Z,1.77
2022-11-20T13:08:33.811Z,1.69
2022-11-20T13:11:26.082Z,1.73
2022-11-20T13:14:23.360Z,1.78
2022-11-20T13:17:06.481Z,1.80
2022-11-20T13:19:33.933Z,1.77
2022-11-20T13:22:00.596Z,1.77
2022-11-20T13:24:32.271Z,1.76
2022-11-20T13:27:05.162Z,1.75
2022-11-20T13:29:33.450Z,2.25
2022-11-20T13:32:17.718Z,2.25
2022-11-20T13:34:58.623Z,2.18
2022-11-20T13:37:38.817Z,2.12
2022-11-20T13:40:14.017Z,2.01
2022-11-20T13:42:45.640Z,1.95
2022-11-20T13:45:27.685Z,1.87
2022-11-20T13:47:55.348Z,1.86
2022-11-20T13:50:41.714Z,1.90
2022-11-20T13:53:29.433Z,1.98
2022-11-20T13:56:02.557Z,1.97
2022-11-20T13:58:45.474Z,2.00
2022-11-20T14:01:25.811Z,1.93
2022-11-20T14:04:09.363Z,1.86
2022-11-20T14:06:42.889Z,1.91
2022-11-20T14:09:33.357Z,1.89
2022-11-20T14:12:00.190Z,1.90
2022-11-20T14:14:29.321Z,1.94
2022-11-20T14:17:26.320Z,1.92
2022-11-20T14:19:54.783Z,1.91
2022-11-20T14:22:22.994Z,1.91
2022-11-20T14:25:01.424Z,1.96
2022-11-20T14:27:27.976Z,1.97
2022-11-20T14:29:54.449Z,2.06
2022-11-20T14:32:28.111Z,2.09
2022-11-20T14:34:55.034Z,2.12
2022-11-20T14:37:25.474Z,2.14
2022-11-20T14:39:54.499Z,2.14
2022-11-20T14:42:25.918Z,2.11
2022-11-20T14:44:55.987Z,2.08
2022-11-20T14:47:25.907Z,2.13
2022-11-20T14:49:54.385Z,2.18
2022-11-20T14:52:23.373Z,2.22
2022-11-20T14:55:00.266Z,2.23
2022-11-20T14:57:30.811Z,2.25
2022-11-20T15:00:08.526Z,2.27
2022-11-20T15:02:35.162Z,2.29
2022-11-20T15:05:04.161Z,2.25
2022-11-20T15:07:36.367Z,2.22
2022-11-20T15:10:12.870Z,2.22
2022-11-20T15:13:09.709Z,2.24
2022-11-20T15:15:47.118Z,2.22
2022-11-20T15:18:15.889Z,2.25
2022-11-20T15:20:43.397Z,2.23
2022-11-20T15:23:12.965Z,2.21
2022-11-20T15:25:43.308Z,2.23
2022-11-20T15:28:22.771Z,2.23
2022-11-20T15:30:50.356Z,2.29
2022-11-20T15:33:18.246Z,2.29
2022-11-20T15:35:45.066Z,2.29
2022-11-20T15:38:11.526Z,2.27
2022-11-20T15:40:37.961Z,2.28
2022-11-20T15:43:09.754Z,2.31
2022-11-20T15:45:45.861Z,2.31
2022-11-20T15:48:18.112Z,2.28
2022-11-20T15:51:02.328Z,2.32
2022-11-20T15:53:28.704Z,2.38
2022-11-20T15:55:55.373Z,2.44
2022-11-20T15:58:23.811Z,2.43
2022-11-20T16:00:51.883Z,2.40
2022-11-20T16:03:19.166Z,2.38
2022-11-20T16:05:45.902Z,2.39
2022-11-20T16:08:12.337Z,2.38
2022-11-20T16:10:39.631Z,2.41
2022-11-20T16:13:36.114Z,2.38
2022-11-20T16:16:06.306Z,2.41
2022-11-20T16:18:33.716Z,2.43
2022-11-20T16:21:00.258Z,2.43
2022-11-20T16:23:26.638Z,2.46
2022-11-20T16:25:53.018Z,2.47
2022-11-20T16:28:19.579Z,2.45
2022-11-20T16:30:46.932Z,2.48
2022-11-20T16:33:15.708Z,2.50
2022-11-20T16:35:42.130Z,2.48
2022-11-20T16:38:08.519Z,2.50
2022-11-20T16:40:35.609Z,2.52
2022-11-20T16:43:11.406Z,2.48
2022-11-20T16:45:41.840Z,2.46
2022-11-20T16:48:12.478Z,2.48
2022-11-20T16:50:45.899Z,2.48
2022-11-20T16:53:12.286Z,2.47
2022-11-20T16:55:38.717Z,2.48
2022-11-20T16:58:05.097Z,2.36
2022-11-20T17:00:31.499Z,2.37
2022-11-20T17:02:57.873Z,2.41
2022-11-20T17:05:24.206Z,2.45
2022-11-20T17:07:50.651Z,2.51
2022-11-20T17:10:17.079Z,2.53
2022-11-20T17:12:44.711Z,2.56
2022-11-20T17:15:11.291Z,2.58
2022-11-20T17:17:37.828Z,2.55
2022-11-20T17:20:04.627Z,2.54
2022-11-20T17:22:31.959Z,2.53
2022-11-20T17:24:58.362Z,2.60
2022-11-20T17:27:24.817Z,2.63
2022-11-20T17:29:51.230Z,2.71
2022-11-20T17:32:17.597Z,2.75
2022-11-20T17:34:44.034Z,2.80
2022-11-20T17:37:10.467Z,2.79
2022-11-20T17:39:36.885Z,2.79
2022-11-20T17:42:21.907Z,2.82
2022-11-20T17:44:48.415Z,2.88
2022-11-20T17:47:14.845Z,2.91
2022-11-20T17:49:41.228Z,2.89
2022-11-20T17:52:07.601Z,2.90
2022-11-20T17:54:33.948Z,2.92
2022-11-20T17:57:18.932Z,2.95
2022-11-20T17:59:45.305Z,3.01
2022-11-20T18:02:11.791Z,3.02
2022-11-20T18:04:38.188Z,3.04
2022-11-20T18:07:04.573Z,3.08
2022-11-20T18:09:31.290Z,3.09
2022-11-20T18:11:57.660Z,3.12
2022-11-20T18:14:29.118Z,3.15
2022-11-20T18:16:57.831Z,3.16
2022-11-20T18:19:31.953Z,3.13
2022-11-20T18:22:01.207Z,3.13
2022-11-20T18:24:27.925Z,3.13
2022-11-20T18:26:54.267Z,3.15
2022-11-20T18:29:20.954Z,3.13
2022-11-20T18:31:48.176Z,3.14
2022-11-20T18:34:14.896Z,3.15
2022-11-20T18:36:45.299Z,3.18
2022-11-20T18:39:13.237Z,3.15
2022-11-20T18:41:59.104Z,3.15
2022-11-20T18:44:47.028Z,3.12
2022-11-20T18:47:16.360Z,3.13
2022-11-20T18:49:46.174Z,3.09
2022-11-20T18:52:13.273Z,3.08
2022-11-20T18:54:39.658Z,3.06
2022-11-20T18:57:06.128Z,3.03
2022-11-20T18:59:32.810Z,3.03
2022-11-20T19:01:59.378Z,3.05
2022-11-20T19:04:26.147Z,3.08
2022-11-20T19:06:56.029Z,3.08
2022-11-20T19:09:24.026Z,3.11
2022-11-20T19:11:51.148Z,3.15
2022-11-20T19:14:17.603Z,3.17
2022-11-20T19:16:44.043Z,3.15
2022-11-20T19:19:10.679Z,3.14
2022-11-20T19:21:37.188Z,3.17
2022-11-20T19:24:04.197Z,3.20
2022-11-20T19:26:30.791Z,3.23
2022-11-20T19:28:58.556Z,3.25
2022-11-20T19:31:28.849Z,3.25
2022-11-20T19:34:03.460Z,3.21
2022-11-20T19:36:33.196Z,3.24
2022-11-20T19:39:00.441Z,3.24
2022-11-20T19:41:31.585Z,3.28
2022-11-20T19:44:00.172Z,3.27
2022-11-20T19:46:28.504Z,3.31
2022-11-20T19:48:55.899Z,3.32
2022-11-20T19:51:24.642Z,3.32
2022-11-20T19:53:51.615Z,3.35
2022-11-20T19:56:18.779Z,3.39
2022-11-20T19:58:45.214Z,3.40
2022-11-20T20:01:14.795Z,3.40
2022-11-20T20:03:41.827Z,3.40
2022-11-20T20:06:10.577Z,3.41
2022-11-20T20:08:37.552Z,3.42
2022-11-20T20:11:30.777Z,3.37
2022-11-20T20:13:58.992Z,3.30
2022-11-20T20:16:26.384Z,3.32
2022-11-20T20:19:01.737Z,3.30
2022-11-20T20:21:30.337Z,3.28
2022-11-20T20:23:57.571Z,3.30
2022-11-20T20:26:25.180Z,3.36
2022-11-20T20:28:51.633Z,3.40
2022-11-20T20:31:20.604Z,3.43
2022-11-20T20:33:47.222Z,3.40
2022-11-20T20:36:15.771Z,3.42
2022-11-20T20:38:43.139Z,3.46
2022-11-20T20:41:09.779Z,3.44
2022-11-20T20:43:56.168Z,3.37
2022-11-20T20:46:23.023Z,3.39
2022-11-20T20:48:54.132Z,3.46
2022-11-20T20:51:21.488Z,3.49
2022-11-20T20:53:47.886Z,3.52
2022-11-20T20:56:14.758Z,3.56
2022-11-20T20:58:41.441Z,3.56
2022-11-20T21:01:13.996Z,3.56
2022-11-20T21:03:41.183Z,3.56
2022-11-20T21:06:09.767Z,3.53
2022-11-20T21:08:40.113Z,3.49
2022-11-20T21:11:13.431Z,3.50
2022-11-20T21:13:42.604Z,3.55
2022-11-20T21:16:09.656Z,3.56
2022-11-20T21:18:36.048Z,3.57
2022-11-20T21:21:26.897Z,3.58
2022-11-20T21:23:53.593Z,3.60
2022-11-20T21:26:20.770Z,3.60
2022-11-20T21:28:47.618Z,3.58
2022-11-20T21:31:18.328Z,3.55
2022-11-20T21:33:46.834Z,3.59
2022-11-20T21:36:16.095Z,3.59
2022-11-20T21:38:43.415Z,3.62
2022-11-20T21:41:11.841Z,3.62
2022-11-20T21:43:38.817Z,3.66
2022-11-20T21:46:08.232Z,3.66
2022-11-20T21:48:36.259Z,3.69
2022-11-20T21:51:06.942Z,3.72
2022-11-20T21:53:34.073Z,3.76
2022-11-20T21:56:00.667Z,3.77
2022-11-20T21:58:27.538Z,3.76
2022-11-20T22:00:54.071Z,3.74
2022-11-20T22:03:20.576Z,3.73
2022-11-20T22:05:57.334Z,3.68
2022-11-20T22:08:25.079Z,3.64
2022-11-20T22:10:59.778Z,3.65
2022-11-20T22:13:45.395Z,3.65
2022-11-20T22:16:12.574Z,3.64
2022-11-20T22:18:52.675Z,3.64
2022-11-20T22:21:25.265Z,3.66
2022-11-20T22:23:52.088Z,3.67
2022-11-20T22:26:21.571Z,3.66
2022-11-20T22:28:49.382Z,3.65
2022-11-20T22:31:16.763Z,3.68
2022-11-20T22:33:43.767Z,3.68
2022-11-20T22:36:13.988Z,3.67
2022-11-20T22:38:40.990Z,3.68
2022-11-20T22:41:22.351Z,3.69
2022-11-20T22:43:54.115Z,3.62
2022-11-20T22:46:20.906Z,3.57
2022-11-20T22:48:53.794Z,3.49
2022-11-20T22:51:25.751Z,3.45
2022-11-20T22:53:52.549Z,3.43
2022-11-20T22:56:18.959Z,3.42
2022-11-20T22:58:47.721Z,3.39
2022-11-20T23:01:33.380Z,3.39
2022-11-20T23:04:02.173Z,3.41
2022-11-20T23:06:29.488Z,3.44
2022-11-20T23:08:56.395Z,3.47
2022-11-20T23:11:25.534Z,3.46
2022-11-20T23:13:53.752Z,3.50
2022-11-20T23:16:20.139Z,3.55
2022-11-20T23:18:46.570Z,3.58
2022-11-20T23:21:15.411Z,3.60
2022-11-20T23:23:42.773Z,3.60
2022-11-20T23:26:14.618Z,3.62
2022-11-20T23:28:42.359Z,3.61
2022-11-20T23:31:10.401Z,3.60
2022-11-20T23:33:38.563Z,3.59
2022-11-20T23:36:05.823Z,3.51
2022-11-20T23:38:32.548Z,3.49
2022-11-20T23:40:59.128Z,3.54
2022-11-20T23:43:26.416Z,3.53
2022-11-20T23:45:58.103Z,3.49
2022-11-20T23:48:26.862Z,3.42
2022-11-20T23:50:53.297Z,3.45
2022-11-20T23:53:20.102Z,3.49
2022-11-20T23:55:51.474Z,3.48
2022-11-20T23:58:18.622Z,3.51
